createdAt,value
2019-01-17T00:01:00.825Z,89.64
2019-01-17T00:04:11.697Z,90.13
2019-01-17T00:07:09.140Z,90.90
2019-01-17T00:10:05.391Z,91.61
2019-01-17T00:12:49.311Z,91.87
2019-01-17T00:15:28.325Z,92.92
2019-01-17T00:18:14.127Z,93.60
2019-01-17T00:21:12.017Z,94.56
2019-01-17T00:24:21.058Z,94.30
2019-01-17T00:27:00.896Z,94.68
2019-01-17T00:29:55.698Z,94.85
2019-01-17T00:33:00.550Z,96.03
2019-01-17T00:35:45.674Z,96.08
2019-01-17T00:38:35.485Z,95.89
2019-01-17T00:41:20.882Z,95.77
2019-01-17T00:44:08.968Z,95.96
2019-01-17T00:46:49.414Z,95.92
2019-01-17T00:49:33.515Z,95.82
2019-01-17T00:52:21.899Z,95.66
2019-01-17T00:55:00.619Z,95.14
2019-01-17T00:57:43.619Z,94.92
2019-01-17T01:00:39.529Z,94.87
2019-01-17T01:03:20.916Z,95.07
2019-01-17T01:06:01.378Z,95.21
2019-01-17T01:08:52.158Z,95.37
2019-01-17T01:11:39.920Z,96.05
2019-01-17T01:14:19.089Z,96.02
2019-01-17T01:17:20.805Z,95.94
2019-01-17T01:20:29.834Z,96.58
2019-01-17T01:23:20.026Z,96.95
2019-01-17T01:25:59.444Z,97.48
2019-01-17T01:28:56.722Z,97.97
2019-01-17T01:31:35.245Z,98.39
2019-01-17T01:34:21.740Z,98.55
2019-01-17T01:37:15.618Z,98.84
2019-01-17T01:40:02.942Z,99.09
2019-01-17T01:42:58.044Z,99.43
2019-01-17T01:45:49.429Z,99.54
2019-01-17T01:48:38.546Z,99.71
2019-01-17T01:51:31.486Z,99.86
2019-01-17T01:54:22.045Z,99.85
2019-01-17T01:56:57.195Z,99.79
2019-01-17T01:59:32.565Z,99.93
2019-01-17T02:02:06.481Z,100.00
2019-01-17T02:04:40.354Z,100.00
2019-01-17T02:07:13.915Z,100.00
2019-01-17T02:09:48.163Z,100.00
2019-01-17T02:12:21.932Z,100.00
2019-01-17T02:14:55.447Z,100.00
2019-01-17T02:17:29.024Z,100.00
2019-01-17T02:20:04.667Z,100.00
2019-01-17T02:22:38.016Z,100.00
2019-01-17T02:25:11.971Z,100.00
2019-01-17T02:27:44.776Z,100.00
2019-01-17T02:30:17.335Z,100.00
2019-01-17T02:32:50.157Z,100.00
2019-01-17T02:35:23.767Z,100.00
2019-01-17T02:37:57.899Z,100.00
2019-01-17T02:40:30.680Z,100.00
2019-01-17T02:43:04.424Z,100.00
2019-01-17T02:45:37.776Z,100.00
2019-01-17T02:48:14.506Z,100.00
2019-01-17T02:50:47.416Z,100.00
2019-01-17T02:53:23.205Z,100.00
2019-01-17T02:55:56.058Z,100.00
2019-01-17T02:58:30.280Z,100.00
2019-01-17T03:01:04.205Z,100.00
2019-01-17T03:03:40.138Z,100.00
2019-01-17T03:06:15.034Z,100.00
2019-01-17T03:08:48.297Z,100.00
2019-01-17T03:11:24.252Z,100.00
2019-01-17T03:13:57.869Z,100.00
2019-01-17T03:16:31.157Z,100.00
2019-01-17T03:19:04.612Z,100.00
2019-01-17T03:21:38.421Z,100.00
2019-01-17T03:24:11.497Z,100.00
2019-01-17T03:26:44.906Z,100.00
2019-01-17T03:29:17.649Z,100.00
2019-01-17T03:31:51.514Z,100.00
2019-01-17T03:34:25.195Z,100.00
2019-01-17T03:36:58.817Z,100.00
2019-01-17T03:39:32.877Z,100.00
2019-01-17T03:42:07.037Z,100.00
2019-01-17T03:44:39.796Z,100.00
2019-01-17T03:47:13.076Z,100.00
2019-01-17T03:49:45.819Z,100.00
2019-01-17T03:52:18.746Z,100.00
2019-01-17T03:54:53.995Z,100.00
2019-01-17T03:57:27.076Z,100.00
2019-01-17T03:59:59.896Z,100.00
2019-01-17T04:02:33.237Z,100.00
2019-01-17T04:05:07.491Z,100.00
2019-01-17T04:07:40.360Z,100.00
2019-01-17T04:10:15.152Z,100.00
2019-01-17T04:12:47.974Z,100.00
2019-01-17T04:15:20.782Z,100.00
2019-01-17T04:17:54.703Z,100.00
2019-01-17T04:20:27.522Z,100.00
2019-01-17T04:23:00.296Z,100.00
2019-01-17T04:25:33.495Z,100.00
2019-01-17T04:28:06.281Z,100.00
2019-01-17T04:30:39.952Z,100.00
2019-01-17T04:33:13.293Z,100.00
2019-01-17T04:35:46.363Z,100.00
2019-01-17T04:38:19.823Z,100.00
2019-01-17T04:40:53.047Z,100.00
2019-01-17T04:43:27.136Z,100.00
2019-01-17T04:45:59.902Z,100.00
2019-01-17T04:48:34.060Z,100.00
2019-01-17T04:51:07.122Z,100.00
2019-01-17T04:53:46.234Z,100.00
2019-01-17T04:56:19.422Z,100.00
2019-01-17T04:58:52.483Z,100.00
2019-01-17T05:01:25.646Z,100.00
2019-01-17T05:03:58.645Z,100.00
2019-01-17T05:06:31.663Z,100.00
2019-01-17T05:09:07.733Z,100.00
2019-01-17T05:11:40.659Z,100.00
2019-01-17T05:14:13.690Z,100.00
2019-01-17T05:16:46.615Z,100.00
2019-01-17T05:19:19.688Z,100.00
2019-01-17T05:21:52.781Z,100.00
2019-01-17T05:24:27.308Z,100.00
2019-01-17T05:27:01.553Z,100.00
2019-01-17T05:29:36.512Z,100.00
2019-01-17T05:32:09.857Z,100.00
2019-01-17T05:34:42.967Z,100.00
2019-01-17T05:37:16.396Z,100.00
2019-01-17T05:39:49.327Z,100.00
2019-01-17T05:42:22.624Z,100.00
2019-01-17T05:44:56.247Z,100.00
2019-01-17T05:47:29.137Z,100.00
2019-01-17T05:50:03.195Z,100.00
2019-01-17T05:52:36.716Z,100.00
2019-01-17T05:55:10.265Z,100.00
2019-01-17T05:57:43.433Z,100.00
2019-01-17T06:00:20.839Z,100.00
2019-01-17T06:02:53.766Z,100.00
2019-01-17T06:05:27.101Z,100.00
2019-01-17T06:08:01.752Z,100.00
2019-01-17T06:10:34.824Z,100.00
2019-01-17T06:13:08.300Z,100.00
2019-01-17T06:15:44.249Z,100.00
2019-01-17T06:18:17.461Z,100.00
2019-01-17T06:20:50.457Z,100.00
2019-01-17T06:23:23.901Z,100.00
2019-01-17T06:25:56.820Z,100.00
2019-01-17T06:28:29.659Z,100.00
2019-01-17T06:31:04.517Z,100.00
2019-01-17T06:33:38.413Z,100.00
2019-01-17T06:36:12.244Z,100.00
2019-01-17T06:38:45.257Z,100.00
2019-01-17T06:41:19.274Z,100.00
2019-01-17T06:43:55.702Z,100.00
2019-01-17T06:46:28.801Z,100.00
2019-01-17T06:49:03.725Z,100.00
2019-01-17T06:51:36.718Z,100.00
2019-01-17T06:54:09.690Z,100.00
2019-01-17T06:56:42.759Z,100.00
2019-01-17T06:59:16.096Z,100.00
2019-01-17T07:01:49.580Z,100.00
2019-01-17T07:04:22.469Z,100.00
2019-01-17T07:06:55.504Z,100.00
2019-01-17T07:09:29.468Z,100.00
2019-01-17T07:12:03.222Z,100.00
2019-01-17T07:14:36.077Z,100.00
2019-01-17T07:17:09.049Z,100.00
2019-01-17T07:19:42.435Z,100.00
2019-01-17T07:22:15.521Z,100.00
2019-01-17T07:24:49.454Z,100.00
2019-01-17T07:27:23.785Z,100.00
2019-01-17T07:29:56.702Z,100.00
2019-01-17T07:32:29.663Z,100.00
2019-01-17T07:35:03.681Z,100.00
2019-01-17T07:37:37.716Z,100.00
2019-01-17T07:40:12.080Z,100.00
2019-01-17T07:42:45.209Z,100.00
2019-01-17T07:45:47.530Z,100.00
2019-01-17T07:48:22.237Z,100.00
2019-01-17T07:50:56.158Z,99.92
2019-01-17T07:53:29.248Z,99.80
2019-01-17T07:56:05.912Z,99.70
2019-01-17T07:58:40.359Z,99.70
2019-01-17T08:01:15.080Z,99.70
2019-01-17T08:03:49.422Z,99.64
2019-01-17T08:06:22.364Z,99.70
2019-01-17T08:08:56.072Z,99.86
2019-01-17T08:11:30.179Z,99.97
2019-01-17T08:14:03.848Z,99.96
2019-01-17T08:16:38.654Z,99.97
2019-01-17T08:19:13.201Z,99.97
2019-01-17T08:21:47.620Z,99.94
2019-01-17T08:24:23.071Z,99.90
2019-01-17T08:26:56.013Z,99.83
2019-01-17T08:29:29.058Z,99.76
2019-01-17T08:32:03.375Z,99.56
2019-01-17T08:34:36.518Z,99.40
2019-01-17T08:37:09.649Z,99.16
2019-01-17T08:39:43.582Z,98.70
2019-01-17T08:42:20.771Z,98.61
2019-01-17T08:44:55.683Z,98.33
2019-01-17T08:47:29.919Z,98.10
2019-01-17T08:50:03.776Z,97.80
2019-01-17T08:52:37.731Z,97.38
2019-01-17T08:55:13.976Z,97.04
2019-01-17T08:57:47.837Z,96.87
2019-01-17T09:00:24.149Z,97.02
2019-01-17T09:02:59.160Z,96.92
2019-01-17T09:05:33.902Z,96.75
2019-01-17T09:08:12.811Z,96.51
2019-01-17T09:10:47.131Z,96.36
2019-01-17T09:13:20.764Z,96.13
2019-01-17T09:15:55.876Z,95.95
2019-01-17T09:18:30.098Z,96.02
2019-01-17T09:21:03.422Z,95.80
2019-01-17T09:23:38.389Z,95.15
2019-01-17T09:26:13.247Z,95.21
2019-01-17T09:28:46.891Z,94.89
2019-01-17T09:31:20.478Z,94.66
2019-01-17T09:33:55.898Z,94.41
2019-01-17T09:36:29.794Z,93.91
2019-01-17T09:39:08.558Z,93.97
2019-01-17T09:41:43.555Z,94.06
2019-01-17T09:44:16.707Z,94.21
2019-01-17T09:46:52.057Z,94.18
2019-01-17T09:49:29.208Z,94.19
2019-01-17T09:52:05.108Z,94.18
2019-01-17T09:54:40.484Z,94.29
2019-01-17T09:57:14.526Z,94.51
2019-01-17T09:59:50.428Z,94.66
2019-01-17T10:02:24.081Z,94.72
2019-01-17T10:05:00.489Z,94.61
2019-01-17T10:07:34.844Z,94.66
2019-01-17T10:10:15.825Z,94.70
2019-01-17T10:12:50.525Z,95.31
2019-01-17T10:16:03.283Z,95.49
2019-01-17T10:19:05.527Z,95.78
2019-01-17T10:22:33.282Z,96.04
2019-01-17T10:25:57.256Z,95.97
2019-01-17T10:29:10.557Z,96.15
2019-01-17T10:32:25.953Z,96.49
2019-01-17T10:35:55.675Z,96.85
2019-01-17T10:38:47.434Z,97.49
2019-01-17T10:41:58.742Z,97.96
2019-01-17T10:45:12.729Z,98.38
2019-01-17T10:48:41.588Z,98.51
2019-01-17T10:52:26.087Z,98.36
2019-01-17T10:56:02.960Z,98.87
2019-01-17T10:59:16.391Z,99.64
2019-01-17T11:02:33.453Z,99.51
2019-01-17T11:05:49.947Z,99.63
2019-01-17T11:09:29.032Z,98.96
2019-01-17T11:12:26.321Z,99.43
2019-01-17T11:16:06.604Z,100.00
2019-01-17T11:19:08.071Z,100.00
2019-01-17T11:22:21.468Z,100.00
2019-01-17T11:25:35.530Z,100.00
2019-01-17T11:29:03.127Z,100.00
2019-01-17T11:32:15.725Z,100.00
2019-01-17T11:35:23.046Z,100.00
2019-01-17T11:38:33.789Z,100.00
2019-01-17T11:42:23.371Z,99.97
2019-01-17T11:45:42.395Z,100.00
2019-01-17T11:49:00.071Z,100.00
2019-01-17T11:52:44.100Z,100.00
2019-01-17T11:55:44.114Z,100.00
2019-01-17T11:59:12.710Z,100.00
2019-01-17T12:02:24.240Z,100.00
2019-01-17T12:04:57.315Z,100.00
2019-01-17T12:07:30.971Z,100.00
2019-01-17T12:10:09.524Z,100.00
2019-01-17T12:12:44.825Z,100.00
2019-01-17T12:15:19.012Z,100.00
2019-01-17T12:17:52.507Z,100.00
2019-01-17T12:20:26.786Z,100.00
2019-01-17T12:22:59.812Z,100.00
2019-01-17T12:25:33.978Z,100.00
2019-01-17T12:28:11.501Z,100.00
2019-01-17T12:30:48.790Z,100.00
2019-01-17T12:33:24.551Z,100.00
2019-01-17T12:36:00.321Z,100.00
2019-01-17T12:38:33.501Z,100.00
2019-01-17T12:41:08.644Z,100.00
2019-01-17T12:43:43.932Z,100.00
2019-01-17T12:46:18.513Z,100.00
2019-01-17T12:48:51.445Z,100.00
2019-01-17T12:51:27.085Z,100.00
2019-01-17T12:54:01.144Z,100.00
2019-01-17T12:56:36.434Z,100.00
2019-01-17T12:59:09.914Z,100.00
2019-01-17T13:01:44.108Z,99.57
2019-01-17T13:04:17.470Z,99.67
2019-01-17T13:06:56.825Z,99.71
2019-01-17T13:09:37.448Z,99.55
2019-01-17T13:12:11.909Z,99.64
2019-01-17T13:14:44.911Z,99.80
2019-01-17T13:17:19.058Z,99.78
2019-01-17T13:19:54.475Z,99.36
2019-01-17T13:22:27.705Z,99.63
2019-01-17T13:25:00.989Z,99.89
2019-01-17T13:27:36.552Z,100.00
2019-01-17T13:30:17.555Z,100.00
2019-01-17T13:32:50.823Z,100.00
2019-01-17T13:35:25.214Z,100.00
2019-01-17T13:37:58.953Z,100.00
2019-01-17T13:40:31.956Z,100.00
2019-01-17T13:43:06.571Z,100.00
2019-01-17T13:45:39.585Z,100.00
2019-01-17T13:48:12.745Z,100.00
2019-01-17T13:50:48.643Z,100.00
2019-01-17T13:53:22.761Z,100.00
2019-01-17T13:55:56.659Z,100.00
2019-01-17T13:58:34.579Z,100.00
2019-01-17T14:01:08.703Z,100.00
2019-01-17T14:03:43.231Z,100.00
2019-01-17T14:06:19.159Z,100.00
2019-01-17T14:08:52.592Z,100.00
2019-01-17T14:11:29.195Z,100.00
2019-01-17T14:14:03.762Z,100.00
2019-01-17T14:16:39.164Z,100.00
2019-01-17T14:19:22.879Z,100.00
2019-01-17T14:21:57.637Z,100.00
2019-01-17T14:24:45.298Z,100.00
2019-01-17T14:27:25.320Z,100.00
2019-01-17T14:29:58.993Z,99.51
2019-01-17T14:32:32.177Z,99.76
2019-01-17T14:35:06.645Z,99.84
2019-01-17T14:37:40.301Z,98.65
2019-01-17T14:40:14.525Z,97.74
2019-01-17T14:42:48.261Z,97.34
2019-01-17T14:45:23.501Z,96.88
2019-01-17T14:47:59.410Z,96.61
2019-01-17T14:50:34.481Z,96.54
2019-01-17T14:53:07.704Z,96.68
2019-01-17T14:55:43.345Z,96.87
2019-01-17T14:58:18.387Z,96.83
2019-01-17T15:00:53.273Z,96.67
2019-01-17T15:03:28.112Z,96.62
2019-01-17T15:06:06.641Z,96.75
2019-01-17T15:08:42.313Z,96.83
2019-01-17T15:11:17.497Z,96.99
2019-01-17T15:13:54.226Z,97.08
2019-01-17T15:16:31.277Z,97.17
2019-01-17T15:19:08.525Z,97.12
2019-01-17T15:21:41.621Z,97.10
2019-01-17T15:24:15.543Z,96.28
2019-01-17T15:26:50.132Z,96.02
2019-01-17T15:29:25.020Z,96.84
2019-01-17T15:32:02.446Z,97.48
2019-01-17T15:34:36.408Z,98.17
2019-01-17T15:37:10.493Z,98.59
2019-01-17T15:39:44.035Z,98.94
2019-01-17T15:42:17.629Z,99.30
2019-01-17T15:44:55.061Z,99.61
2019-01-17T15:47:32.560Z,99.96
2019-01-17T15:50:11.478Z,100.00
2019-01-17T15:52:45.414Z,100.00
2019-01-17T15:55:20.748Z,100.00
2019-01-17T15:57:54.765Z,100.00
2019-01-17T16:00:35.465Z,100.00
2019-01-17T16:03:13.741Z,100.00
2019-01-17T16:05:51.266Z,100.00
2019-01-17T16:08:25.235Z,100.00
2019-01-17T16:11:00.014Z,100.00
2019-01-17T16:13:34.271Z,100.00
2019-01-17T16:16:11.396Z,100.00
2019-01-17T16:18:48.545Z,100.00
2019-01-17T16:21:25.915Z,100.00
2019-01-17T16:24:00.693Z,100.00
2019-01-17T16:26:35.825Z,100.00
2019-01-17T16:29:12.766Z,100.00
2019-01-17T16:31:47.773Z,100.00
2019-01-17T16:34:22.779Z,100.00
2019-01-17T16:37:04.923Z,100.00
2019-01-17T16:39:40.710Z,100.00
2019-01-17T16:42:14.953Z,100.00
2019-01-17T16:44:48.205Z,100.00
2019-01-17T16:47:22.180Z,100.00
2019-01-17T16:49:56.236Z,100.00
2019-01-17T16:52:29.989Z,100.00
2019-01-17T16:55:05.957Z,100.00
2019-01-17T16:57:49.124Z,100.00
2019-01-17T17:00:41.851Z,100.00
2019-01-17T17:03:15.713Z,100.00
2019-01-17T17:05:51.712Z,100.00
2019-01-17T17:08:26.674Z,100.00
2019-01-17T17:11:00.078Z,100.00
2019-01-17T17:13:33.803Z,100.00
2019-01-17T17:16:10.919Z,100.00
2019-01-17T17:18:45.300Z,100.00
2019-01-17T17:21:21.042Z,99.81
2019-01-17T17:23:54.663Z,99.54
2019-01-17T17:26:28.930Z,99.34
2019-01-17T17:29:05.805Z,99.15
2019-01-17T17:31:43.944Z,98.68
2019-01-17T17:34:18.953Z,98.50
2019-01-17T17:36:53.253Z,98.26
2019-01-17T17:39:27.939Z,98.20
2019-01-17T17:42:10.813Z,98.26
2019-01-17T17:44:47.204Z,98.46
2019-01-17T17:47:20.633Z,98.76
2019-01-17T17:49:56.406Z,98.88
2019-01-17T17:52:31.397Z,99.10
2019-01-17T17:55:12.391Z,99.24
2019-01-17T17:57:46.990Z,99.38
2019-01-17T18:00:40.689Z,99.51
2019-01-17T18:03:17.646Z,99.69
2019-01-17T18:05:51.109Z,99.69
2019-01-17T18:08:26.552Z,99.69
2019-01-17T18:11:02.159Z,99.75
2019-01-17T18:13:36.319Z,99.83
2019-01-17T18:16:10.055Z,99.92
2019-01-17T18:18:43.546Z,99.92
2019-01-17T18:21:20.733Z,99.85
2019-01-17T18:23:54.968Z,99.83
2019-01-17T18:26:29.964Z,99.90
2019-01-17T18:29:10.001Z,99.99
2019-01-17T18:31:43.714Z,100.00
2019-01-17T18:34:19.191Z,100.00
2019-01-17T18:36:56.446Z,100.00
2019-01-17T18:39:29.922Z,100.00
2019-01-17T18:42:05.573Z,100.00
2019-01-17T18:44:39.242Z,100.00
2019-01-17T18:47:15.782Z,100.00
2019-01-17T18:49:52.812Z,100.00
2019-01-17T18:52:32.484Z,100.00
2019-01-17T18:55:08.102Z,100.00
2019-01-17T18:57:42.893Z,100.00
2019-01-17T19:00:24.518Z,100.00
2019-01-17T19:03:01.325Z,100.00
2019-01-17T19:05:39.881Z,100.00
2019-01-17T19:08:15.980Z,100.00
2019-01-17T19:10:50.177Z,100.00
2019-01-17T19:13:25.207Z,100.00
2019-01-17T19:15:58.263Z,100.00
2019-01-17T19:18:32.142Z,100.00
2019-01-17T19:21:08.860Z,100.00
2019-01-17T19:23:45.274Z,100.00
2019-01-17T19:26:22.074Z,100.00
2019-01-17T19:28:55.824Z,100.00
2019-01-17T19:31:31.561Z,100.00
2019-01-17T19:34:09.830Z,100.00
2019-01-17T19:36:44.082Z,100.00
2019-01-17T19:39:21.080Z,100.00
2019-01-17T19:41:54.951Z,100.00
2019-01-17T19:44:31.403Z,100.00
2019-01-17T19:47:11.367Z,100.00
2019-01-17T19:49:51.398Z,100.00
2019-01-17T19:52:27.718Z,100.00
2019-01-17T19:55:03.180Z,100.00
2019-01-17T19:57:40.527Z,100.00
2019-01-17T20:00:22.763Z,100.00
2019-01-17T20:02:56.425Z,100.00
2019-01-17T20:05:32.078Z,100.00
2019-01-17T20:08:07.892Z,100.00
2019-01-17T20:10:43.586Z,100.00
2019-01-17T20:13:18.306Z,100.00
2019-01-17T20:16:10.825Z,100.00
2019-01-17T20:18:45.961Z,100.00
2019-01-17T20:21:21.738Z,100.00
2019-01-17T20:23:58.095Z,100.00
2019-01-17T20:26:32.840Z,100.00
2019-01-17T20:29:10.766Z,100.00
2019-01-17T20:31:52.582Z,100.00
2019-01-17T20:34:28.621Z,100.00
2019-01-17T20:37:05.574Z,100.00
2019-01-17T20:39:44.599Z,100.00
2019-01-17T20:42:20.131Z,100.00
2019-01-17T20:45:10.204Z,100.00
2019-01-17T20:47:46.120Z,100.00
2019-01-17T20:50:25.749Z,100.00
2019-01-17T20:53:00.325Z,100.00
2019-01-17T20:55:34.616Z,100.00
2019-01-17T20:58:08.948Z,100.00
2019-01-17T21:01:04.421Z,100.00
2019-01-17T21:03:39.431Z,100.00
2019-01-17T21:06:20.991Z,100.00
2019-01-17T21:08:54.996Z,100.00
2019-01-17T21:11:37.311Z,100.00
2019-01-17T21:14:13.120Z,100.00
2019-01-17T21:16:46.620Z,100.00
2019-01-17T21:19:22.090Z,100.00
2019-01-17T21:21:59.804Z,100.00
2019-01-17T21:24:36.200Z,100.00
2019-01-17T21:27:15.360Z,100.00
2019-01-17T21:29:52.183Z,100.00
2019-01-17T21:32:26.766Z,100.00
2019-01-17T21:35:02.170Z,100.00
2019-01-17T21:37:36.371Z,100.00
2019-01-17T21:40:17.651Z,100.00
2019-01-17T21:42:51.773Z,100.00
2019-01-17T21:45:25.802Z,100.00
2019-01-17T21:48:00.393Z,100.00
2019-01-17T21:50:34.224Z,100.00
2019-01-17T21:53:09.846Z,100.00
2019-01-17T21:55:48.032Z,100.00
2019-01-17T21:58:25.825Z,100.00
2019-01-17T22:00:59.872Z,100.00
2019-01-17T22:03:34.536Z,100.00
2019-01-17T22:06:08.140Z,100.00
2019-01-17T22:08:43.754Z,100.00
2019-01-17T22:11:20.241Z,100.00
2019-01-17T22:13:55.089Z,100.00
2019-01-17T22:16:31.075Z,100.00
2019-01-17T22:19:08.185Z,100.00
2019-01-17T22:21:42.053Z,100.00
2019-01-17T22:24:18.544Z,100.00
2019-01-17T22:26:52.540Z,100.00
2019-01-17T22:29:27.492Z,100.00
2019-01-17T22:32:00.881Z,100.00
2019-01-17T22:34:39.336Z,100.00
2019-01-17T22:37:12.364Z,100.00
2019-01-17T22:39:47.743Z,100.00
2019-01-17T22:42:22.344Z,100.00
2019-01-17T22:44:56.261Z,100.00
2019-01-17T22:47:29.856Z,100.00
2019-01-17T22:50:03.156Z,100.00
2019-01-17T22:52:36.230Z,100.00
2019-01-17T22:55:09.907Z,100.00
2019-01-17T22:57:43.084Z,100.00
2019-01-17T23:00:48.263Z,100.00
2019-01-17T23:03:36.336Z,100.00
2019-01-17T23:06:09.273Z,100.00
2019-01-17T23:08:42.647Z,100.00
2019-01-17T23:11:15.911Z,100.00
2019-01-17T23:13:52.283Z,100.00
2019-01-17T23:16:26.533Z,100.00
2019-01-17T23:19:01.304Z,100.00
2019-01-17T23:21:35.509Z,100.00
2019-01-17T23:24:10.193Z,100.00
2019-01-17T23:26:43.291Z,100.00
2019-01-17T23:29:16.700Z,100.00
2019-01-17T23:31:50.391Z,100.00
2019-01-17T23:34:23.407Z,100.00
2019-01-17T23:36:56.918Z,100.00
2019-01-17T23:39:30.063Z,100.00
2019-01-17T23:42:03.331Z,100.00
2019-01-17T23:44:36.798Z,100.00
2019-01-17T23:47:15.567Z,100.00
2019-01-17T23:49:49.506Z,100.00
2019-01-17T23:52:24.617Z,100.00
2019-01-17T23:54:57.617Z,100.00
2019-01-17T23:57:30.950Z,100.00
